createdAt,value
2018-12-11T00:01:59.095Z,62.83
2018-12-11T00:04:28.727Z,62.57
2018-12-11T00:06:58.488Z,62.77
2018-12-11T00:09:27.944Z,63.04
2018-12-11T00:11:57.557Z,62.51
2018-12-11T00:14:27.386Z,62.46
2018-12-11T00:16:56.759Z,63.06
2018-12-11T00:19:26.279Z,62.70
2018-12-11T00:21:56.187Z,62.94
2018-12-11T00:24:26.024Z,62.69
2018-12-11T00:26:56.319Z,63.05
2018-12-11T00:29:26.027Z,63.08
2018-12-11T00:31:55.858Z,63.05
2018-12-11T00:34:25.778Z,62.57
2018-12-11T00:36:55.536Z,63.03
2018-12-11T00:39:25.396Z,62.96
2018-12-11T00:41:55.035Z,62.65
2018-12-11T00:44:24.669Z,62.98
2018-12-11T00:46:54.286Z,62.78
2018-12-11T00:49:24.259Z,62.73
2018-12-11T00:51:53.763Z,62.74
2018-12-11T00:54:23.408Z,63.32
2018-12-11T00:56:53.221Z,63.51
2018-12-11T00:59:22.933Z,63.26
2018-12-11T01:01:52.443Z,63.33
2018-12-11T01:04:22.784Z,63.53
2018-12-11T01:06:52.516Z,64.23
2018-12-11T01:09:22.116Z,63.41
2018-12-11T01:11:51.987Z,63.47
2018-12-11T01:14:21.427Z,63.67
2018-12-11T01:16:51.037Z,63.12
2018-12-11T01:19:20.797Z,63.50
2018-12-11T01:21:50.471Z,63.65
2018-12-11T01:24:20.179Z,63.25
2018-12-11T01:26:50.057Z,63.25
2018-12-11T01:29:19.486Z,63.53
2018-12-11T01:31:49.076Z,62.76
2018-12-11T01:34:18.605Z,62.83
2018-12-11T01:36:48.455Z,63.48
2018-12-11T01:39:18.413Z,63.18
2018-12-11T01:41:48.363Z,63.30
2018-12-11T01:44:18.135Z,62.87
2018-12-11T01:46:47.799Z,62.05
2018-12-11T01:49:17.319Z,62.79
2018-12-11T01:51:46.994Z,63.00
2018-12-11T01:54:16.551Z,61.86
2018-12-11T01:56:46.406Z,62.45
2018-12-11T01:59:15.785Z,62.06
2018-12-11T02:01:45.658Z,62.29
2018-12-11T02:04:14.964Z,62.16
2018-12-11T02:06:44.682Z,62.04
2018-12-11T02:09:14.350Z,62.66
2018-12-11T02:11:43.914Z,62.41
2018-12-11T02:14:13.363Z,62.68
2018-12-11T02:16:43.035Z,62.85
2018-12-11T02:19:12.396Z,62.69
2018-12-11T02:21:42.097Z,63.30
2018-12-11T02:24:11.182Z,63.13
2018-12-11T02:26:40.800Z,62.84
2018-12-11T02:29:10.292Z,62.40
2018-12-11T02:31:40.091Z,62.70
2018-12-11T02:34:09.738Z,62.62
2018-12-11T02:36:39.121Z,62.42
2018-12-11T02:39:08.955Z,63.00
2018-12-11T02:41:38.518Z,62.87
2018-12-11T02:44:08.419Z,62.85
2018-12-11T02:46:38.536Z,62.42
2018-12-11T02:49:08.202Z,63.01
2018-12-11T02:51:38.021Z,62.70
2018-12-11T02:54:07.872Z,62.16
2018-12-11T02:56:37.524Z,62.47
2018-12-11T02:59:07.026Z,61.69
2018-12-11T03:01:36.668Z,61.95
2018-12-11T03:04:06.356Z,62.14
2018-12-11T03:06:35.974Z,62.44
2018-12-11T03:09:07.335Z,62.30
2018-12-11T03:11:37.024Z,61.98
2018-12-11T03:14:06.940Z,61.63
2018-12-11T03:16:36.768Z,62.03
2018-12-11T03:19:06.144Z,61.79
2018-12-11T03:21:35.879Z,61.99
2018-12-11T03:24:05.845Z,61.40
2018-12-11T03:26:35.177Z,61.99
2018-12-11T03:29:05.067Z,61.83
2018-12-11T03:31:35.034Z,61.47
2018-12-11T03:34:04.660Z,62.28
2018-12-11T03:36:34.164Z,61.79
2018-12-11T03:39:04.149Z,62.09
2018-12-11T03:41:33.908Z,62.17
2018-12-11T03:44:03.476Z,62.42
2018-12-11T03:46:33.314Z,62.04
2018-12-11T03:49:02.961Z,62.55
2018-12-11T03:51:32.650Z,62.69
2018-12-11T03:54:02.509Z,63.24
2018-12-11T03:56:32.078Z,62.63
2018-12-11T03:59:01.472Z,63.25
2018-12-11T04:01:31.117Z,63.67
2018-12-11T04:04:00.528Z,64.08
2018-12-11T04:06:30.754Z,63.67
2018-12-11T04:09:00.481Z,64.17
2018-12-11T04:11:30.228Z,64.12
2018-12-11T04:13:59.938Z,63.65
2018-12-11T04:16:29.384Z,63.78
2018-12-11T04:18:59.117Z,64.10
2018-12-11T04:21:28.986Z,63.43
2018-12-11T04:23:58.660Z,63.45
2018-12-11T04:26:28.160Z,63.35
2018-12-11T04:28:58.097Z,63.74
2018-12-11T04:31:27.547Z,64.23
2018-12-11T04:33:57.052Z,63.60
2018-12-11T04:36:27.316Z,63.78
2018-12-11T04:38:57.057Z,63.68
2018-12-11T04:41:26.598Z,64.03
2018-12-11T04:43:56.559Z,64.08
2018-12-11T04:46:26.141Z,63.43
2018-12-11T04:48:55.684Z,64.09
2018-12-11T04:51:25.307Z,63.88
2018-12-11T04:53:54.993Z,63.35
2018-12-11T04:56:24.451Z,63.35
2018-12-11T04:58:53.952Z,62.84
2018-12-11T05:01:23.823Z,62.93
2018-12-11T05:03:53.540Z,64.53
2018-12-11T05:06:23.706Z,63.94
2018-12-11T05:08:53.313Z,63.34
2018-12-11T05:11:22.916Z,63.58
2018-12-11T05:13:52.867Z,63.69
2018-12-11T05:16:22.453Z,62.89
2018-12-11T05:18:52.558Z,63.19
2018-12-11T05:21:22.417Z,62.89
2018-12-11T05:23:51.855Z,63.17
2018-12-11T05:26:21.603Z,62.82
2018-12-11T05:28:51.444Z,62.70
2018-12-11T05:31:21.092Z,63.00
2018-12-11T05:33:50.823Z,62.25
2018-12-11T05:36:20.873Z,62.52
2018-12-11T05:38:50.563Z,62.69
2018-12-11T05:41:20.172Z,62.97
2018-12-11T05:43:50.053Z,63.04
2018-12-11T05:46:19.694Z,63.01
2018-12-11T05:48:49.297Z,67.71
2018-12-11T05:51:19.109Z,63.53
2018-12-11T05:53:48.591Z,62.75
2018-12-11T05:56:18.194Z,62.80
2018-12-11T05:58:47.905Z,63.36
2018-12-11T06:01:17.448Z,63.60
2018-12-11T06:03:46.932Z,63.92
2018-12-11T06:06:16.581Z,63.80
2018-12-11T06:08:46.383Z,64.68
2018-12-11T06:11:16.031Z,65.34
2018-12-11T06:13:45.893Z,63.61
2018-12-11T06:16:15.636Z,65.22
2018-12-11T06:18:45.188Z,62.12
2018-12-11T06:21:14.823Z,62.03
2018-12-11T06:23:44.429Z,62.83
2018-12-11T06:26:14.136Z,62.90
2018-12-11T06:28:43.879Z,63.49
2018-12-11T06:31:13.427Z,63.89
2018-12-11T06:33:42.776Z,64.31
2018-12-11T06:36:12.805Z,64.48
2018-12-11T06:38:42.182Z,64.73
2018-12-11T06:41:11.607Z,64.96
2018-12-11T06:43:41.372Z,64.66
2018-12-11T06:46:11.105Z,65.00
2018-12-11T06:48:40.707Z,64.91
2018-12-11T06:51:11.011Z,64.67
2018-12-11T06:53:40.517Z,65.11
2018-12-11T06:56:10.209Z,64.76
2018-12-11T06:58:40.852Z,64.49
2018-12-11T07:01:09.477Z,64.55
2018-12-11T07:03:39.221Z,64.92
2018-12-11T07:06:09.204Z,64.87
2018-12-11T07:08:39.022Z,64.35
2018-12-11T07:11:08.720Z,63.08
2018-12-11T07:13:38.660Z,63.40
2018-12-11T07:16:08.325Z,63.09
2018-12-11T07:18:37.718Z,63.01
2018-12-11T07:21:07.355Z,62.74
2018-12-11T07:23:36.911Z,63.30
2018-12-11T07:26:06.573Z,62.62
2018-12-11T07:28:36.288Z,62.85
2018-12-11T07:31:06.102Z,62.29
2018-12-11T07:33:35.457Z,62.21
2018-12-11T07:36:05.409Z,61.35
2018-12-11T07:38:34.872Z,60.98
2018-12-11T07:41:04.384Z,61.10
2018-12-11T07:43:33.921Z,60.99
2018-12-11T07:46:03.510Z,60.68
2018-12-11T07:48:32.852Z,60.40
2018-12-11T07:51:03.075Z,60.22
2018-12-11T07:53:32.980Z,60.12
2018-12-11T07:56:03.013Z,58.66
2018-12-11T07:58:32.685Z,58.13
2018-12-11T08:01:02.540Z,57.64
2018-12-11T08:03:31.931Z,57.11
2018-12-11T08:06:01.906Z,56.16
2018-12-11T08:08:31.542Z,55.51
2018-12-11T08:11:01.158Z,54.80
2018-12-11T08:13:31.168Z,54.67
2018-12-11T08:16:01.780Z,54.80
2018-12-11T08:18:31.386Z,54.15
2018-12-11T08:21:01.253Z,53.34
2018-12-11T08:23:30.751Z,53.96
2018-12-11T08:26:00.557Z,54.36
2018-12-11T08:28:30.300Z,54.49
2018-12-11T08:30:59.927Z,54.47
2018-12-11T08:33:29.673Z,53.63
2018-12-11T08:35:59.957Z,52.89
2018-12-11T08:38:29.485Z,52.73
2018-12-11T08:40:59.396Z,51.52
2018-12-11T08:43:29.366Z,50.52
2018-12-11T08:45:58.967Z,50.91
2018-12-11T08:48:28.669Z,49.72
2018-12-11T08:50:58.769Z,49.83
2018-12-11T08:53:28.424Z,50.07
2018-12-11T08:55:57.967Z,49.42
2018-12-11T08:58:27.903Z,49.15
2018-12-11T09:00:57.612Z,48.69
2018-12-11T09:03:27.450Z,49.23
2018-12-11T09:05:57.240Z,48.57
2018-12-11T09:08:27.575Z,48.97
2018-12-11T09:10:57.064Z,48.30
2018-12-11T09:13:26.741Z,47.42
2018-12-11T09:15:56.402Z,48.52
2018-12-11T09:18:32.444Z,47.84
2018-12-11T09:21:01.764Z,48.01
2018-12-11T09:23:31.684Z,48.09
2018-12-11T09:26:01.271Z,48.57
2018-12-11T09:28:30.797Z,48.41
2018-12-11T09:31:00.248Z,48.16
2018-12-11T09:33:29.759Z,46.88
2018-12-11T09:35:59.211Z,46.84
2018-12-11T09:38:29.018Z,46.68
2018-12-11T09:40:59.106Z,46.21
2018-12-11T09:43:28.727Z,46.97
2018-12-11T09:45:58.147Z,44.58
2018-12-11T09:48:28.094Z,45.71
2018-12-11T09:50:57.568Z,45.59
2018-12-11T09:53:27.023Z,45.34
2018-12-11T09:55:56.911Z,44.28
2018-12-11T09:58:26.479Z,44.28
2018-12-11T10:00:56.183Z,44.47
2018-12-11T10:03:26.270Z,45.08
2018-12-11T10:05:55.921Z,44.40
2018-12-11T10:08:25.776Z,44.01
2018-12-11T10:10:55.804Z,43.04
2018-12-11T10:13:25.490Z,43.75
2018-12-11T10:15:55.059Z,44.38
2018-12-11T10:18:24.955Z,44.46
2018-12-11T10:20:54.532Z,44.52
2018-12-11T10:23:24.287Z,44.40
2018-12-11T10:25:53.971Z,43.68
2018-12-11T10:28:23.632Z,44.50
2018-12-11T10:30:53.455Z,45.81
2018-12-11T10:33:23.305Z,45.42
2018-12-11T10:35:52.896Z,43.47
2018-12-11T10:38:22.432Z,43.29
2018-12-11T10:40:52.191Z,42.48
2018-12-11T10:43:21.850Z,43.12
2018-12-11T10:45:51.835Z,42.27
2018-12-11T10:48:21.654Z,41.85
2018-12-11T10:50:51.231Z,42.28
2018-12-11T10:53:20.896Z,42.17
2018-12-11T10:55:50.542Z,42.57
2018-12-11T10:58:20.155Z,41.09
2018-12-11T11:00:55.355Z,42.45
2018-12-11T11:03:25.064Z,42.88
2018-12-11T11:05:54.740Z,43.07
2018-12-11T11:08:24.682Z,43.21
2018-12-11T11:10:54.315Z,42.50
2018-12-11T11:13:23.968Z,41.34
2018-12-11T11:15:54.071Z,41.63
2018-12-11T11:18:23.647Z,40.37
2018-12-11T11:20:53.303Z,39.70
2018-12-11T11:23:23.033Z,37.13
2018-12-11T11:25:52.815Z,37.92
2018-12-11T11:28:22.419Z,36.79
2018-12-11T11:30:52.398Z,35.64
2018-12-11T11:33:21.739Z,34.70
2018-12-11T11:35:51.319Z,37.04
2018-12-11T11:38:20.801Z,36.71
2018-12-11T11:40:50.258Z,34.75
2018-12-11T11:43:19.593Z,32.95
2018-12-11T11:45:49.206Z,32.58
2018-12-11T11:48:18.544Z,30.91
2018-12-11T11:50:48.079Z,30.54
2018-12-11T11:53:17.555Z,30.16
2018-12-11T11:55:47.169Z,28.79
2018-12-11T11:58:16.583Z,28.87
2018-12-11T12:00:46.789Z,30.56
2018-12-11T12:03:16.105Z,29.53
2018-12-11T12:05:45.620Z,29.12
2018-12-11T12:08:15.087Z,28.78
2018-12-11T12:10:44.511Z,28.40
2018-12-11T12:13:13.911Z,29.12
2018-12-11T12:15:43.640Z,29.27
2018-12-11T12:18:13.422Z,28.90
2018-12-11T12:20:42.863Z,29.13
2018-12-11T12:23:12.628Z,28.16
2018-12-11T12:25:42.151Z,25.83
2018-12-11T12:28:11.896Z,25.96
2018-12-11T12:30:41.799Z,25.50
2018-12-11T12:33:11.591Z,24.59
2018-12-11T12:35:41.088Z,24.95
2018-12-11T12:38:10.863Z,25.70
2018-12-11T12:40:40.783Z,25.42
2018-12-11T12:43:10.582Z,28.49
2018-12-11T12:45:40.356Z,27.53
2018-12-11T12:48:09.908Z,28.20
2018-12-11T12:50:39.591Z,29.18
2018-12-11T12:53:10.257Z,30.66
2018-12-11T12:55:39.843Z,30.82
2018-12-11T12:58:09.347Z,31.14
2018-12-11T13:00:39.304Z,31.88
2018-12-11T13:03:08.931Z,32.62
2018-12-11T13:05:38.364Z,31.75
2018-12-11T13:08:08.077Z,31.30
2018-12-11T13:10:37.490Z,32.75
2018-12-11T13:13:07.305Z,33.45
2018-12-11T13:15:37.235Z,35.43
2018-12-11T13:18:06.941Z,37.07
2018-12-11T13:20:36.651Z,40.97
2018-12-11T13:23:06.583Z,44.04
2018-12-11T13:25:36.042Z,45.56
2018-12-11T13:28:05.740Z,45.62
2018-12-11T13:30:35.894Z,46.93
2018-12-11T13:33:08.235Z,47.14
2018-12-11T13:35:37.894Z,46.79
2018-12-11T13:38:07.480Z,46.81
2018-12-11T13:40:37.169Z,47.84
2018-12-11T13:43:07.440Z,47.68
2018-12-11T13:45:36.871Z,48.30
2018-12-11T13:48:06.616Z,48.83
2018-12-11T13:50:37.365Z,48.94
2018-12-11T13:53:07.104Z,49.00
2018-12-11T13:55:36.845Z,48.92
2018-12-11T13:58:10.617Z,49.25
2018-12-11T14:00:41.220Z,49.85
2018-12-11T14:03:11.275Z,49.58
2018-12-11T14:05:45.066Z,50.19
2018-12-11T14:08:20.302Z,49.22
2018-12-11T14:10:49.970Z,49.51
2018-12-11T14:13:19.699Z,49.47
2018-12-11T14:15:49.410Z,49.92
2018-12-11T14:18:18.658Z,49.97
2018-12-11T14:20:48.329Z,49.61
2018-12-11T14:23:18.401Z,49.57
2018-12-11T14:25:48.086Z,50.53
2018-12-11T14:28:17.661Z,49.80
2018-12-11T14:30:47.199Z,49.54
2018-12-11T14:33:16.629Z,49.96
2018-12-11T14:35:45.970Z,50.36
2018-12-11T14:38:15.880Z,50.05
2018-12-11T14:40:45.289Z,50.18
2018-12-11T14:43:14.731Z,50.17
2018-12-11T14:45:44.135Z,50.64
2018-12-11T14:48:13.601Z,50.15
2018-12-11T14:50:43.169Z,50.98
2018-12-11T14:53:12.960Z,50.86
2018-12-11T14:55:42.318Z,50.35
2018-12-11T14:58:11.751Z,49.84
2018-12-11T15:00:41.693Z,50.22
2018-12-11T15:03:11.212Z,51.26
2018-12-11T15:05:40.928Z,51.44
2018-12-11T15:08:11.021Z,52.10
2018-12-11T15:10:40.763Z,52.51
2018-12-11T15:13:10.211Z,52.72
2018-12-11T15:15:40.219Z,53.13
2018-12-11T15:18:09.581Z,53.44
2018-12-11T15:20:39.135Z,53.44
2018-12-11T15:23:09.274Z,53.72
2018-12-11T15:25:38.976Z,53.75
2018-12-11T15:28:08.687Z,52.86
2018-12-11T15:30:38.658Z,53.43
2018-12-11T15:33:08.364Z,53.47
2018-12-11T15:35:37.950Z,52.89
2018-12-11T15:38:07.921Z,52.51
2018-12-11T15:40:37.607Z,52.54
2018-12-11T15:43:07.205Z,53.05
2018-12-11T15:45:37.174Z,52.94
2018-12-11T15:48:07.983Z,52.52
2018-12-11T15:50:37.708Z,52.65
2018-12-11T15:53:07.439Z,52.29
2018-12-11T15:55:37.061Z,52.64
2018-12-11T15:58:06.840Z,52.90
2018-12-11T16:17:59.195Z,53.77
2018-12-11T16:20:28.929Z,53.67
2018-12-11T16:22:59.093Z,53.79
2018-12-11T16:25:28.970Z,53.80
2018-12-11T16:27:58.653Z,53.98
2018-12-11T16:30:28.994Z,53.66
2018-12-11T16:32:58.665Z,54.64
2018-12-11T16:35:28.186Z,54.63
2018-12-11T16:37:57.939Z,54.92
2018-12-11T16:40:29.087Z,54.89
2018-12-11T16:42:58.777Z,55.25
2018-12-11T16:45:28.380Z,54.88
2018-12-11T16:47:58.304Z,55.02
2018-12-11T16:50:28.019Z,55.08
2018-12-11T16:52:57.818Z,54.94
2018-12-11T16:55:28.652Z,55.05
2018-12-11T16:57:58.603Z,55.36
2018-12-11T17:00:28.448Z,55.26
2018-12-11T17:02:58.381Z,55.23
2018-12-11T17:05:28.603Z,55.17
2018-12-11T17:07:58.134Z,54.66
2018-12-11T17:10:29.562Z,54.85
2018-12-11T17:12:59.892Z,54.56
2018-12-11T17:15:29.936Z,55.53
2018-12-11T17:18:00.263Z,55.06
2018-12-11T17:37:52.337Z,55.72
2018-12-11T17:40:22.915Z,56.49
2018-12-11T17:42:52.711Z,57.08
2018-12-11T17:45:22.530Z,55.97
2018-12-11T17:47:52.558Z,56.10
2018-12-11T17:50:23.935Z,56.85
2018-12-11T17:52:53.763Z,56.81
2018-12-11T17:55:23.329Z,56.88
2018-12-11T17:57:53.117Z,56.75
2018-12-11T18:23:33.932Z,57.29
2018-12-11T18:26:03.771Z,57.61
2018-12-11T18:45:56.130Z,58.60
2018-12-11T18:48:25.780Z,58.75
2018-12-11T18:50:55.396Z,58.48
2018-12-11T18:53:26.497Z,58.16
2018-12-11T18:55:57.156Z,58.09
2018-12-11T18:58:27.579Z,58.52
2018-12-11T19:00:57.006Z,58.50
2018-12-11T19:03:27.432Z,58.40
2018-12-11T19:05:58.049Z,58.45
2018-12-11T19:08:27.762Z,58.44
2018-12-11T19:10:57.500Z,58.06
2018-12-11T19:13:27.896Z,58.69
2018-12-11T19:15:58.443Z,58.12
2018-12-11T19:18:28.117Z,58.42
2018-12-11T19:38:20.691Z,58.41
2018-12-11T19:40:50.301Z,58.32
2018-12-11T19:43:19.810Z,58.46
2018-12-11T19:45:49.659Z,58.60
2018-12-11T19:48:19.337Z,59.00
2018-12-11T20:08:11.479Z,58.72
2018-12-11T20:10:41.166Z,58.63
2018-12-11T20:13:10.913Z,58.38
2018-12-11T20:33:23.478Z,59.31
2018-12-11T20:35:52.323Z,59.27
2018-12-11T20:55:44.658Z,60.22
2018-12-11T20:58:13.989Z,60.20
2018-12-11T21:00:43.708Z,60.26
2018-12-11T21:03:13.055Z,60.65
2018-12-11T21:05:42.703Z,60.52
2018-12-11T21:08:12.204Z,60.75
2018-12-11T21:10:42.059Z,61.58
2018-12-11T21:13:11.443Z,61.96
2018-12-11T21:15:41.090Z,62.45
2018-12-11T21:18:10.494Z,62.48
2018-12-11T21:20:40.115Z,62.37
2018-12-11T21:23:09.776Z,62.60
2018-12-11T21:25:39.607Z,62.72
2018-12-11T21:28:09.251Z,62.61
2018-12-11T21:30:38.728Z,63.05
2018-12-11T21:33:08.599Z,62.51
2018-12-11T21:35:38.116Z,61.98
2018-12-11T21:38:07.734Z,62.54
2018-12-11T21:40:37.359Z,62.21
2018-12-11T21:43:06.962Z,62.63
2018-12-11T21:45:36.458Z,63.01
2018-12-11T21:48:06.352Z,62.22
2018-12-11T21:50:36.025Z,61.99
2018-12-11T22:24:55.769Z,60.95
2018-12-11T22:27:26.488Z,60.79
2018-12-11T22:29:56.216Z,60.36
2018-12-11T22:32:25.651Z,60.17
2018-12-11T22:34:55.303Z,60.40
2018-12-11T22:37:24.943Z,60.55
2018-12-11T22:39:54.449Z,60.21
2018-12-11T22:42:24.198Z,60.41
2018-12-11T23:02:15.480Z,61.24
2018-12-11T23:04:45.479Z,61.00
2018-12-11T23:07:15.022Z,60.48
2018-12-11T23:09:45.351Z,60.71
2018-12-11T23:12:15.174Z,60.84
2018-12-11T23:14:44.859Z,60.42
2018-12-11T23:17:14.179Z,60.63
2018-12-11T23:19:44.116Z,60.68
2018-12-11T23:22:13.478Z,60.14
2018-12-11T23:24:42.935Z,60.26
2018-12-11T23:27:12.663Z,60.27
2018-12-11T23:29:42.414Z,60.25
2018-12-11T23:32:11.904Z,60.54
2018-12-11T23:34:41.819Z,59.97
2018-12-11T23:37:11.778Z,59.86
2018-12-11T23:57:03.551Z,59.01
2018-12-11T23:59:33.019Z,59.47
